Flight Track Log - Related Links

Times and Time Zones

All times are in EDT time to prevent confusion due to time zone crossing. See the KLM1000 flight status page for this flight to view local times or setup timezone preferences in your user account.

Time Position Orientation Groundspeed Altitude Reporting Facility
EDT Latitude Longitude Course Direction KTS MPH feet Rate Location/Type
Sat 01:51:20 AM 51.4780 -0.4770 269° West 158 182 600  Level FlightAware ADS-B (CYTZ)
Sat 01:51:23 AM 51.4773 -0.4821 269° West 1 1 700 3,000 Climbing FlightAware UK
Sat 01:51:50 AM 51.4770 -0.5120 267° West 149 171 2,100 3,081 Climbing FlightAware ADS-B (CYTZ)
Sat 01:52:00 AM 51.4770 -0.5231 270° West 140 161 2,600 3,000 Climbing FlightAware ADS-B
Sat 01:52:04 AM 51.4764 -0.5282 259° West 138 159 2,800 2,667 Climbing FlightAware ADS-B
Sat 01:52:09 AM 51.4756 -0.5320 252° West 139 160 3,000 2,400 Climbing FlightAware ADS-B
Sat 01:52:14 AM 51.4741 -0.5378 247° West 141 162 3,200 2,400 Climbing FlightAware ADS-B
Sat 01:52:19 AM 51.4726 -0.5414 237° Southwest 143 165 3,400 2,250 Climbing FlightAware ADS-B
Sat 01:52:22 AM 51.4713 -0.5442 233° Southwest 145 167 3,500 1,714 Climbing FlightAware ADS-B
Sat 01:52:26 AM 51.4695 -0.5484 236° Southwest 150 173 3,600 750 Climbing FlightAware ADS-B
Sat 01:52:30 AM 51.4677 -0.5509 221° Southwest 158 182 3,600 750 Level FlightAware ADS-B
Sat 01:52:34 AM 51.4653 -0.5540 218° Southwest 165 190 3,700 1,714 Climbing FlightAware ADS-B
Sat 01:52:37 AM 51.4633 -0.5561 214° Southwest 171 197 3,800 857 Climbing FlightAware ADS-B
Sat 01:52:41 AM 51.4606 -0.5587 210° Southwest 179 206 3,800 857 Level FlightAware ADS-B
Sat 01:52:44 AM 51.4578 -0.5607 204° Southwest 187 215 3,900 857 Climbing FlightAware ADS-B
Sat 01:52:48 AM 51.4547 -0.5617 191° South 196 226 3,900 857 Level FlightAware ADS-B
Sat 01:52:51 AM 51.4518 -0.5623 188° South 203 234 4,000 1,714 Climbing FlightAware ADS-B
Sat 01:52:55 AM 51.4479 -0.5625 182° South 212 244 4,100 750 Climbing FlightAware ADS-B
Sat 01:52:59 AM 51.4439 -0.5621 176° South 222 255 4,100 857 Level FlightAware ADS-B
Sat 01:53:02 AM 51.4407 -0.5611 170° South 231 266 4,200 857 Climbing FlightAware ADS-B
Sat 01:53:06 AM 51.4365 -0.5589 161° South 242 278 4,200 857 Level FlightAware ADS-B
Sat 01:53:09 AM 51.4331 -0.5556 149° Southeast 250 288 4,300 1,333 Climbing FlightAware ADS-B
Sat 01:53:15 AM 51.4278 -0.5499 146° Southeast 265 305 4,400 1,091 Climbing FlightAware ADS-B
Sat 01:53:20 AM 51.4236 -0.5432 135° Southeast 272 313 4,500 1,333 Climbing FlightAware ADS-B
Sat 01:53:24 AM 51.4198 -0.5372 135° Southeast 278 320 4,600 750 Climbing FlightAware ADS-B
Sat 01:53:28 AM 51.4165 -0.5308 130° Southeast 282 325 4,600 923 Level FlightAware ADS-B
Sat 01:53:37 AM 51.4096 -0.5155 126° Southeast 285 328 4,800 1,125 Climbing FlightAware ADS-B
Sat 01:53:44 AM 51.4039 -0.5038 128° Southeast 285 328 4,900 1,091 Climbing FlightAware ADS-B
Sat 01:53:48 AM 51.4002 -0.4976 133° Southeast 284 327 5,000 1,263 Climbing FlightAware ADS-B
Sat 01:54:03 AM 51.3860 -0.4736 134° Southeast 284 327 5,300 1,161 Climbing FlightAware ADS-B
Sat 01:54:19 AM 51.3717 -0.4518 136° Southeast 284 327 5,600 1,125 Climbing FlightAware ADS-B
Sat 01:54:35 AM 51.3561 -0.4285 137° Southeast 285 328 5,900 1,125 Climbing FlightAware ADS-B
Sat 01:54:51 AM 51.3408 -0.4055 137° Southeast 286 329 6,200 750 Climbing FlightAware ADS-B
Sat 01:54:59 AM 51.3330 -0.3934 136° Southeast 292 336 6,200  Level FlightAware ADS-B
Sat 01:55:02 AM 51.3302 -0.3884 132° Southeast 295 339 6,200  Level FlightAware ADS-B
Sat 01:55:05 AM 51.3277 -0.3833 128° Southeast 298 343 6,200  Level FlightAware ADS-B
Sat 01:55:10 AM 51.3243 -0.3738 120° Southeast 300 345 6,200  Level FlightAware ADS-B
Sat 01:55:25 AM 51.3144 -0.3424 117° Southeast 301 346 6,200  Level FlightAware ADS-B
Sat 01:55:41 AM 51.3046 -0.3129 118° Southeast 300 345 6,200  Level FlightAware ADS-B
Sat 01:55:59 AM 51.2933 -0.2774 117° Southeast 299 344 6,200  Level FlightAware ADS-B
Sat 01:56:16 AM 51.2826 -0.2442 117° Southeast 297 342 6,200  Level FlightAware ADS-B
Sat 01:56:31 AM 51.2729 -0.2150 118° Southeast 296 341 6,200 400 Level FlightAware ADS-B
Sat 01:56:46 AM 51.2630 -0.1857 118° Southeast 300 345 6,400 900 Climbing FlightAware ADS-B
Sat 01:56:51 AM 51.2599 -0.1759 117° Southeast 301 346 6,500 2,000 Climbing FlightAware ADS-B
Sat 01:56:58 AM 51.2568 -0.1612 109° East 304 350 6,800 2,727 Climbing FlightAware ADS-B
Sat 01:57:02 AM 51.2557 -0.1522 101° East 306 352 7,000 3,429 Climbing FlightAware ADS-B
Sat 01:57:05 AM 51.2553 -0.1456 95° East 309 356 7,200 3,750 Climbing FlightAware ADS-B
Sat 01:57:10 AM 51.2555 -0.1343 88° East 313 360 7,500 2,667 Climbing FlightAware ADS-B
Sat 01:57:14 AM 51.2561 -0.1250 84° East 316 364 7,600 3,000 Climbing FlightAware ADS-B
Sat 01:57:20 AM 51.2578 -0.1112 79° East 318 366 8,000 3,652 Climbing FlightAware ADS-B
Sat 01:57:37 AM 51.2630 -0.0719 78° East 321 369 9,000 3,353 Climbing FlightAware ADS-B
Sat 01:57:54 AM 51.2684 -0.0319 78° East 328 377 9,900 2,375 Climbing FlightAware ADS-B
Sat 01:58:25 AM 51.2792 0.0467 78° East 363 418 10,900 1,750 Climbing FlightAware ADS-B
Sat 01:58:42 AM 51.2854 0.0908 78° East 334 384 11,300 2,516 Climbing FlightAware UK
Sat 01:58:56 AM 51.2911 0.1282 78° East 383 441 12,200 3,000 Climbing FlightAware ADS-B
Sat 01:59:12 AM 51.2975 0.1736 78° East 338 389 12,800 2,750 Climbing FlightAware UK
Sat 01:59:20 AM 51.3009 0.1954 78° East 394 453 13,300 3,500 Climbing FlightAware ADS-B
Sat 01:59:24 AM 51.3024 0.2068 78° East 393 452 13,500 3,000 Climbing FlightAware ADS-B
Sat 01:59:42 AM 51.3057 0.2599 78° East 350 403 14,400 3,000 Climbing FlightAware UK
Sat 01:59:54 AM 51.3082 0.2966 78° East 398 458 15,000 2,800 Climbing FlightAware ADS-B
Sat 02:00:12 AM 51.3114 0.3475 78° East 356 410 15,800 2,710 Climbing FlightAware UK
Sat 02:00:25 AM 51.3148 0.3854 78° East 408 470 16,400 2,647 Climbing FlightAware ADS-B
Sat 02:00:46 AM 51.3197 0.4486 83° East 414 476 17,300 2,591 Climbing FlightAware ADS-B
Sat 02:01:09 AM 51.3196 0.5188 90° East 413 475 18,300 2,526 Climbing FlightAware ADS-B
Sat 02:01:24 AM 51.3173 0.5661 90° East 372 428 18,900 2,323 Climbing FlightAware UK
Sat 02:01:40 AM 51.3151 0.6138 90° East 419 482 19,500 2,000 Climbing FlightAware ADS-B
Sat 02:02:12 AM 51.3103 0.7157 94° East 439 505 20,500 1,791 Climbing FlightAware ADS-B
Sat 02:02:47 AM 51.3051 0.8345 94° East 457 526 21,500 1,676 Climbing FlightAware ADS-B
Sat 02:03:20 AM 51.2999 0.9452 94° East 478 550 22,400 1,429 Climbing FlightAware ADS-B
Sat 02:03:50 AM 51.2950 1.0548 94° East 478 550 23,000 590 Climbing FlightAware ADS-B
Sat 02:04:21 AM 51.2902 1.1596 94° East 473 544 23,000  Level FlightAware ADS-B
Sat 02:04:42 AM 51.2867 1.2364 94° East 376 433 23,000  Level FlightAware UK
Sat 02:04:52 AM 51.2850 1.2673 94° East 469 540 23,000  Level FlightAware ADS-B
Sat 02:05:12 AM 51.2814 1.3396 94° East 376 433 23,000  Level FlightAware UK
Sat 02:05:45 AM 51.2758 1.4494 94° East 468 539 23,000  Level FlightAware ADS-B
Sat 02:06:24 AM 51.2686 1.5866 94° East 378 435 23,000  Level FlightAware UK
Sat 02:06:33 AM 51.2670 1.6060 94° East 461 531 23,000  Level FlightAware ADS-B (CYTZ)
Sat 02:06:55 AM 51.2634 1.6888 94° East 378 435 23,000  Level FlightAware UK
Sat 02:07:12 AM 51.2600 1.7410 94° East 456 525 23,000  Level FlightAware ADS-B
Sat 02:07:37 AM 51.2557 1.8292 94° East 376 433 23,000  Level FlightAware UK
Sat 02:07:54 AM 51.2530 1.8780 94° East 454 522 23,000  Level FlightAware ADS-B
Sat 02:08:37 AM 51.2446 2.0290 94° East 376 433 23,000  Level FlightAware UK
Sat 02:08:50 AM 51.2427 2.0707 94° East 452 520 23,000  Level FlightAware ADS-B
Sat 02:09:07 AM 51.2397 2.1293 94° East 378 435 23,000  Level FlightAware UK
Sat 02:09:39 AM 51.2350 2.2332 94° East 452 520 23,000  Level FlightAware ADS-B
Sat 02:10:18 AM 51.2290 2.3560 94° East 449 517 23,000  Level FlightAware ADS-B
Sat 02:10:55 AM 51.2223 2.4843 95° East 449 517 23,000  Level FlightAware ADS-B
Sat 02:11:25 AM 51.2173 2.5859 95° East 374 430 23,000  Level FlightAware UK
Sat 02:11:31 AM 51.2200 2.5400 95° East 449 517 23,000  Level FlightAware ADS-B
Sat 02:12:01 AM 51.2103 2.7018 95° East 449 517 23,000 -200 Level FlightAware ADS-B
Sat 02:12:31 AM 51.2043 2.8039 95° East 382 440 22,800 -563 Descending FlightAware UK
Sat 02:13:05 AM 51.2079 2.9141 95° East 455 524 22,400 -600 Descending FlightAware ADS-B
Sat 02:13:21 AM 51.2161 2.9667 76° East 465 535 22,300 -667 Descending FlightAware ADS-B
Sat 02:13:41 AM 51.2352 3.0289 64° Northeast 471 542 22,000 -913 Descending FlightAware ADS-B
Sat 02:14:07 AM 51.2688 3.1046 64° Northeast 382 440 21,600 -968 Descending FlightAware UK
Sat 02:14:43 AM 51.3236 3.1938 45° Northeast 382 440 21,000 -783 Descending FlightAware UK
Sat 02:14:53 AM 51.3350 3.2110 45° Northeast 462 532 21,000 -833 Level FlightAware ADS-B
Sat 02:15:19 AM 51.3784 3.2832 45° Northeast 384 442 20,500 -900 Descending FlightAware UK
Sat 02:15:33 AM 51.3930 3.3050 45° Northeast 464 534 20,400 -1,000 Descending FlightAware ADS-B
Sat 02:15:55 AM 51.4321 3.3720 45° Northeast 372 428 19,900 -1,091 Descending FlightAware UK
Sat 02:16:17 AM 51.4600 3.4160 45° Northeast 439 505 19,600 -1,600 Descending FlightAware ADS-B
Sat 02:16:55 AM 51.5158 3.5117 45° Northeast 360 414 18,300 -1,846 Descending FlightAware UK
Sat 02:16:56 AM 51.5150 3.5090 45° Northeast 425 489 18,400 -2,000 Climbing FlightAware ADS-B
Sat 02:17:31 AM 51.5680 3.5872 45° Northeast 360 414 17,100 -1,814 Descending FlightAware UK
Sat 02:17:39 AM 51.5700 3.5890 45° Northeast 415 478 17,100 -1,667 Level FlightAware ADS-B
Sat 02:18:07 AM 51.6279 3.6446 45° Northeast 352 405 16,100 -1,756 Descending FlightAware UK
Sat 02:18:20 AM 51.6410 3.6560 45° Northeast 410 472 15,900 -1,667 Descending FlightAware ADS-B
Sat 02:18:43 AM 51.6866 3.6998 45° Northeast 344 396 15,100 -1,227 Descending FlightAware UK
Sat 02:19:04 AM 51.7130 3.7240 45° Northeast 395 455 15,000 -92 Descending FlightAware ADS-B
Sat 02:19:48 AM 51.7860 3.7920 30° Northeast 391 450 15,000 -400 Level FlightAware ADS-B
Sat 02:20:19 AM 51.8371 3.8409 30° Northeast 336 387 14,500 -789 Descending FlightAware UK
Sat 02:20:26 AM 51.8440 3.8460 30° Northeast 387 445 14,500 -778 Level FlightAware ADS-B
Sat 02:21:13 AM 51.9140 3.9130 31° Northeast 375 432 13,800 -1,247 Descending FlightAware ADS-B
Sat 02:21:43 AM 51.9616 3.9655 31° Northeast 332 382 12,900 -1,371 Descending FlightAware UK
Sat 02:21:48 AM 51.9650 3.9700 31° Northeast 362 417 13,000 -1,800 Climbing FlightAware ADS-B
Sat 02:22:13 AM 51.9959 4.0243 31° Northeast 320 368 12,000 -1,696 Descending FlightAware UK
Sat 02:22:34 AM 52.0170 4.0610 31° Northeast 354 407 11,700 -889 Descending FlightAware ADS-B
Sat 02:23:07 AM 52.0556 4.1283 31° Northeast 296 341 11,200 -977 Descending FlightAware UK
Sat 02:23:17 AM 52.0630 4.1400 31° Northeast 336 387 11,000 -1,565 Descending FlightAware ADS-B
Sat 02:23:30 AM 52.0820 4.1590 32° Northeast 336 387 10,600 -2,233 Descending FlightAware ADS-B
Sat 02:24:00 AM 52.1260 4.1860 21° North 349 402 9,400 -2,286 Descending FlightAware ADS-B
Sat 02:24:12 AM 52.1450 4.1970 20° North 348 400 9,000 -2,108 Descending FlightAware ADS-B
Sat 02:24:37 AM 52.1848 4.2227 20° North 1 1 8,100 -2,000 Descending FlightAware UK
Sat 02:24:39 AM 52.1830 4.2220 20° North 344 396 8,100 -2,000 Level FlightAware ADS-B
Sat 02:25:04 AM 52.2210 4.2460 21° North 336 387 7,200 -2,053 Descending FlightAware ADS-B
Sat 02:25:17 AM 52.2360 4.2550 20° North 334 384 6,800 -2,478 Descending FlightAware ADS-B
Sat 02:25:50 AM 52.2890 4.2860 20° North 330 380 5,300 -2,571 Descending FlightAware ADS-B
Sat 02:26:06 AM 52.3130 4.3000 20° North 327 376 4,700 -1,636 Descending FlightAware ADS-B
Sat 02:26:34 AM 52.3520 4.3230 20° North 309 356 4,100 -964 Descending FlightAware ADS-B
Sat 02:27:02 AM 52.3860 4.3530 28° Northeast 293 337 3,800 -667 Descending FlightAware ADS-B
Sat 02:27:28 AM 52.4140 4.3840 34° Northeast 280 322 3,500 -750 Descending FlightAware ADS-B
Sat 02:27:58 AM 52.4460 4.4170 32° Northeast 274 315 3,100 -571 Descending FlightAware ADS-B
Sat 02:28:10 AM 52.4590 4.4320 35° Northeast 273 314 3,100 150 Level FlightAware ADS-B
Sat 02:28:38 AM 52.4880 4.4630 33° Northeast 274 315 3,200  Climbing FlightAware ADS-B
Sat 02:29:06 AM 52.5170 4.4990 37° Northeast 260 299 3,100  Descending FlightAware ADS-B
Sat 02:29:34 AM 52.5400 4.5380 46° Northeast 241 277 3,200  Climbing FlightAware ADS-B
Sat 02:29:48 AM 52.5440 4.5590 73° East 231 266 3,100 -409 Descending FlightAware ADS-B
Sat 02:30:18 AM 52.5480 4.6080 82° East 231 266 2,900 -517 Descending FlightAware ADS-B
Sat 02:30:46 AM 52.5440 4.6540 98° East 211 243 2,600 -556 Descending FlightAware ADS-B
Sat 02:31:12 AM 52.5330 4.6910 116° Southeast 211 243 2,400 -571 Descending FlightAware ADS-B
Sat 02:31:28 AM 52.5240 4.7120 125° Southeast 198 228 2,200 -429 Descending FlightAware ADS-B
Sat 02:31:40 AM 52.5150 4.7190 155° Southeast 191 220 2,200 -240 Level FlightAware ADS-B
Sat 02:31:53 AM 52.5030 4.7230 169° South 184 212 2,100  Descending FlightAware ADS-B
Sat 02:32:21 AM 52.4800 4.7230 180° South 161 185 2,200 143 Climbing FlightAware ADS-B
Sat 02:32:35 AM 52.4700 4.7220 183° South 159 183 2,200 -286 Level FlightAware ADS-B
Sat 02:33:03 AM 52.4500 4.7200 183° South 158 182 2,000 -724 Descending FlightAware ADS-B
Sat 02:33:33 AM 52.4290 4.7180 183° South 144 166 1,500 -828 Descending FlightAware ADS-B
Sat 02:34:01 AM 52.4120 4.7160 184° South 124 143 1,200 -667 Descending FlightAware ADS-B
Sat 02:34:27 AM 52.3970 4.7150 182° South 126 145 900 -692 Descending FlightAware ADS-B
Sat 02:34:53 AM 52.3810 4.7140 182° South 135 155 600 -750 Descending FlightAware ADS-B
Sat 02:35:07 AM 52.3740 4.7130 185° South 136 157 400 -857 Descending FlightAware ADS-B
Sat 02:36:29 AM 52.3430 4.7100 183° South 84 97 -293 Descending FlightAware ADS-B
Sat 02:36:58 AM 52.3320 4.7130 171° South 22 25  Level FlightAware ADS-B
Sat 02:37:26 AM 52.3300 4.7160 137° Southeast 22 25  Level FlightAware ADS-B
Sat 02:37:54 AM 52.3280 4.7200 129° Southeast 21 24  Level FlightAware ADS-B
Sat 02:38:04 AM 52.3280 4.7210 90° East 20 23  Level FlightAware ADS-B
Sat 02:38:25 AM 52.3270 4.7240 119° Southeast 17 20  Level FlightAware ADS-B
Sat 02:38:52 AM 52.3260 4.7270 119° Southeast 25 29  Level FlightAware ADS-B
Sat 02:39:21 AM 52.3230 4.7310 141° Southeast 26 30  Level FlightAware ADS-B
Sat 02:39:43 AM 52.3210 4.7330 149° Southeast 23 26  Level FlightAware ADS-B
Sat 02:40:03 AM 52.3210 4.7370 90° East 23 26  Level FlightAware ADS-B
Sat 02:41:12 AM 52.3200 4.7430 105° East 33 38  Level FlightAware ADS-B
Sat 02:41:27 AM 52.3170 4.7430 180° South 17 20  Level FlightAware ADS-B
Sat 02:41:48 AM 52.3150 4.7430 180° South 17 20  Level FlightAware ADS-B
Sat 02:42:08 AM 52.3150 4.7440 90° East 13 15  Level FlightAware ADS-B
Sat 02:42:33 AM 52.3150 4.7470 90° East 14 16  Level FlightAware ADS-B
Sat 02:42:53 AM 52.3150 4.7490 90° East 18 21  Level FlightAware ADS-B
Sat 02:43:13 AM 52.3150 4.7520 90° East 21 24  Level FlightAware ADS-B
Sat 02:43:43 AM 52.3150 4.7580 90° East 27 31  Level FlightAware ADS-B
Sat 02:44:27 AM 52.3150 4.7650 90° East 18 21  Level FlightAware ADS-B
Sat 02:44:57 AM 52.3150 4.7700 90° East 21 24  Level FlightAware ADS-B
Sat 02:45:19 AM 52.3140 4.7730 119° Southeast 24 28  Level FlightAware ADS-B
Sat 02:45:54 AM 52.3110 4.7750 158° South 20 23  Level FlightAware ADS-B
Sat 02:47:38 AM 52.3080 4.7710 219° Southwest 20 23  Level FlightAware ADS-B
Sat 02:50:00 AM 52.3086 4.7639 278° West  Level Estimated

Login

Don't have an account? Register now (free) for customized features, flight alerts, and more!